Onyx, CA (93255)

5:01 PM PDT on August 30, 2016 (GMT -0700)
Weldon (Lake Isabella) | | Change Station

Elev 3196 ft 35.63 °N, 118.34 °W | Updated 4 seconds ago

Clear
Clear
94.3 °F
Feels Like 90 °F
N
7.4
Wind Variable Wind from WSW
Gusts 9.8 mph

Today
High -- | Low -- °F
--% Chance of Precip.
Yesterday
High -- | Low -- °F
Precip. -- in
Pressure 29.75 in
Visibility 10.0 miles
Clouds Few 11000 ft
Heat Index 90 °F
Dew Point 32 °F
Humidity 11%
Rainfall 0.00 in
Snow Depth Not available.
6:23 AM 7:21 PM
Waning Crescent, 2% visible
METAR KNID 302356Z 22008KT 10SM FEW110 40/M03 A2983 RMK AO2 SLP074 T04001033 10417 20344 56018 $
Pressure 29.75 in
Visibility 10.0 miles
Clouds Few 11000 ft
Heat Index 90 °F
Dew Point 32 °F
Humidity 11%
Rainfall 0.00 in
Snow Depth Not available.
6:23 AM 7:21 PM
Waning Crescent, 2% visible
METAR KNID 302356Z 22008KT 10SM FEW110 40/M03 A2983 RMK AO2 SLP074 T04001033 10417 20344 56018 $

10-Day Weather Forecast

Almanac

Astronomy

Aug. 30, 2016 Rise Set
Actual Time
Civil Twilight
Nautical Twilight
Astronomical Twilight
Moon
Length of Visible Light
Length of Day
Tomorrow will be .
, % of the Moon is Illuminated

Today's Extremes

State Highs State Lows

Community

WunderPhotos

Upload Photos

1,935,958 photos uploaded!

WunderBlog® & News

Nearby

Air Quality

  Air Quality AQ Index Pollutant
Not available.

Snow Depth

Station Depth Elevation

Earthquake Activity

City Distance Mag. Time & Date
Minimum magnitude displayed is 2.5.

Coastal Water Temperatures

Place Temperature

Stations

Nearby Weather Stations

Station Location Temp. Windchill Dew Point Humidity Wind Precip. Elev Updated Type
                   

Watches & Warnings

There are currently no watches in effect.